AZU4149 SBSV-SBSP
Flight info
| Callsign | AZU4149 |
|---|---|
| Flight time | N/A |
| Altitude | 34000 |
| Route | GEKEV UZ30 ENTIT |
| Aircraft | E195/M-SDE3GILORVW/S |
Departure
| Time | N/A |
|---|---|
| Airport | Deputado Luiz Eduardo Magalhães International Airport (SBSV) |
Arrival
| Time | 2026-05-03 21:35 |
|---|---|
| Airport | Congonhas–Deputado Freitas Nobre Airport (SBSP) |
| Time | Latitude | Longitude | Altitude | Speed | Heading |
|---|---|---|---|---|---|
| 2026-05-03 20:15 | -17.52004 | -43.17914 | 34046 ft | 466 kts | 221° |
| 2026-05-03 20:15 | -17.57072 | -43.22138 | 34046 ft | 465 kts | 221° |
| 2026-05-03 20:16 | -17.62134 | -43.26368 | 34052 ft | 465 kts | 221° |
| 2026-05-03 20:16 | -17.67194 | -43.30600 | 34053 ft | 465 kts | 221° |
| 2026-05-03 20:17 | -17.72251 | -43.34830 | 34049 ft | 465 kts | 221° |
| 2026-05-03 20:17 | -17.77307 | -43.39063 | 34060 ft | 464 kts | 222° |
| 2026-05-03 20:18 | -17.82351 | -43.43291 | 34060 ft | 465 kts | 222° |
| 2026-05-03 20:18 | -17.87399 | -43.47523 | 34058 ft | 464 kts | 222° |
| 2026-05-03 20:19 | -17.92449 | -43.51760 | 34068 ft | 465 kts | 222° |
| 2026-05-03 20:19 | -17.97495 | -43.55996 | 34077 ft | 464 kts | 222° |
| 2026-05-03 20:20 | -18.02537 | -43.60236 | 34074 ft | 464 kts | 222° |
| 2026-05-03 20:20 | -18.07580 | -43.64476 | 34079 ft | 464 kts | 222° |
| 2026-05-03 20:21 | -18.12615 | -43.68714 | 34078 ft | 464 kts | 222° |
| 2026-05-03 20:21 | -18.17648 | -43.72950 | 34077 ft | 462 kts | 222° |
| 2026-05-03 20:22 | -18.22665 | -43.77178 | 34075 ft | 462 kts | 222° |
| 2026-05-03 20:22 | -18.27688 | -43.81410 | 34074 ft | 463 kts | 222° |
| 2026-05-03 20:23 | -18.32711 | -43.85647 | 34068 ft | 462 kts | 222° |
| 2026-05-03 20:23 | -18.37723 | -43.89877 | 34067 ft | 461 kts | 222° |
| 2026-05-03 20:24 | -18.42721 | -43.94096 | 34062 ft | 460 kts | 222° |
| 2026-05-03 20:24 | -18.47693 | -43.98294 | 34060 ft | 461 kts | 222° |
| 2026-05-03 20:25 | -18.52694 | -44.02524 | 34047 ft | 461 kts | 222° |
| 2026-05-03 20:25 | -18.57695 | -44.06752 | 34047 ft | 460 kts | 223° |
| 2026-05-03 20:26 | -18.62688 | -44.10980 | 34038 ft | 460 kts | 223° |
| 2026-05-03 20:26 | -18.67679 | -44.15209 | 34034 ft | 460 kts | 223° |
| 2026-05-03 20:27 | -18.72667 | -44.19438 | 34034 ft | 460 kts | 223° |
| 2026-05-03 20:27 | -18.77653 | -44.23669 | 34027 ft | 460 kts | 223° |
| 2026-05-03 20:28 | -18.82641 | -44.27911 | 34029 ft | 460 kts | 223° |
| 2026-05-03 20:28 | -18.87615 | -44.32145 | 34030 ft | 460 kts | 223° |
| 2026-05-03 20:29 | -18.92598 | -44.36392 | 34031 ft | 460 kts | 223° |
| 2026-05-03 20:29 | -18.97572 | -44.40634 | 34032 ft | 459 kts | 223° |
| 2026-05-03 20:30 | -19.02537 | -44.44871 | 34036 ft | 459 kts | 223° |
| 2026-05-03 20:30 | -19.07509 | -44.49114 | 34035 ft | 459 kts | 223° |
| 2026-05-03 20:31 | -19.12473 | -44.53354 | 34038 ft | 459 kts | 223° |
| 2026-05-03 20:31 | -19.17428 | -44.57588 | 34034 ft | 457 kts | 223° |
| 2026-05-03 20:32 | -19.22374 | -44.61818 | 34037 ft | 457 kts | 223° |
| 2026-05-03 20:32 | -19.27289 | -44.66025 | 34039 ft | 457 kts | 223° |
| 2026-05-03 20:33 | -19.32239 | -44.70264 | 34039 ft | 458 kts | 223° |
| 2026-05-03 20:33 | -19.37180 | -44.74496 | 34038 ft | 457 kts | 223° |
| 2026-05-03 20:34 | -19.42118 | -44.78732 | 34044 ft | 457 kts | 223° |
| 2026-05-03 20:34 | -19.47059 | -44.82973 | 34039 ft | 457 kts | 223° |
| 2026-05-03 20:35 | -19.51997 | -44.87215 | 34043 ft | 457 kts | 223° |
| 2026-05-03 20:35 | -19.56922 | -44.91456 | 34043 ft | 456 kts | 224° |
| 2026-05-03 20:36 | -19.61843 | -44.95703 | 34037 ft | 456 kts | 224° |
| 2026-05-03 20:36 | -19.66768 | -44.99956 | 34043 ft | 457 kts | 224° |
| 2026-05-03 20:37 | -19.71682 | -45.04209 | 34040 ft | 456 kts | 224° |
| 2026-05-03 20:37 | -19.76590 | -45.08452 | 34048 ft | 453 kts | 224° |
| 2026-05-03 20:38 | -19.81475 | -45.12682 | 34039 ft | 453 kts | 224° |
| 2026-05-03 20:38 | -19.86360 | -45.16915 | 34046 ft | 453 kts | 224° |
| 2026-05-03 20:39 | -19.91244 | -45.21150 | 34051 ft | 453 kts | 224° |
| 2026-05-03 20:39 | -19.96119 | -45.25380 | 34052 ft | 453 kts | 224° |
| 2026-05-03 20:40 | -20.00996 | -45.29615 | 34048 ft | 453 kts | 224° |
| 2026-05-03 20:40 | -20.05839 | -45.33824 | 34066 ft | 453 kts | 224° |
| 2026-05-03 20:41 | -20.10697 | -45.38047 | 34047 ft | 450 kts | 224° |
| 2026-05-03 20:41 | -20.15542 | -45.42266 | 34064 ft | 450 kts | 224° |
| 2026-05-03 20:42 | -20.20382 | -45.46486 | 34049 ft | 450 kts | 224° |
| 2026-05-03 20:42 | -20.25225 | -45.50706 | 34055 ft | 450 kts | 224° |
| 2026-05-03 20:43 | -20.30065 | -45.54931 | 34054 ft | 450 kts | 224° |
| 2026-05-03 20:43 | -20.34903 | -45.59162 | 34050 ft | 450 kts | 224° |
| 2026-05-03 20:44 | -20.39732 | -45.63387 | 34061 ft | 449 kts | 224° |
| 2026-05-03 20:44 | -20.44565 | -45.67616 | 34057 ft | 449 kts | 224° |
| 2026-05-03 20:45 | -20.49394 | -45.71848 | 34058 ft | 449 kts | 224° |
| 2026-05-03 20:45 | -20.54222 | -45.76081 | 34059 ft | 449 kts | 224° |
| 2026-05-03 20:46 | -20.59050 | -45.80320 | 34064 ft | 449 kts | 225° |
| 2026-05-03 20:46 | -20.63875 | -45.84559 | 34056 ft | 449 kts | 225° |
| 2026-05-03 20:47 | -20.68700 | -45.88805 | 34069 ft | 449 kts | 225° |
| 2026-05-03 20:47 | -20.73522 | -45.93043 | 34069 ft | 449 kts | 225° |
| 2026-05-03 20:48 | -20.78331 | -45.97276 | 34070 ft | 448 kts | 225° |
| 2026-05-03 20:48 | -20.83131 | -46.01504 | 34067 ft | 447 kts | 225° |
| 2026-05-03 20:49 | -20.87924 | -46.05732 | 34066 ft | 447 kts | 225° |
| 2026-05-03 20:49 | -20.92713 | -46.09959 | 34074 ft | 447 kts | 225° |
| 2026-05-03 20:50 | -20.97641 | -46.14024 | 34085 ft | 454 kts | 215° |
| 2026-05-03 20:50 | -21.03658 | -46.16437 | 34079 ft | 465 kts | 205° |
| 2026-05-03 20:51 | -21.09785 | -46.18606 | 34080 ft | 462 kts | 205° |
| 2026-05-03 20:51 | -21.15886 | -46.20769 | 34073 ft | 462 kts | 205° |
| 2026-05-03 20:52 | -21.22023 | -46.22870 | 34074 ft | 463 kts | 204° |
| 2026-05-03 20:52 | -21.28166 | -46.24951 | 34086 ft | 463 kts | 204° |
| 2026-05-03 20:53 | -21.34310 | -46.27045 | 34085 ft | 463 kts | 204° |
| 2026-05-03 20:53 | -21.39416 | -46.28785 | 34090 ft | 463 kts | 204° |
| 2026-05-03 20:54 | -21.45564 | -46.30877 | 34095 ft | 463 kts | 204° |
| 2026-05-03 20:54 | -21.54766 | -46.34025 | 34100 ft | 463 kts | 204° |
| 2026-05-03 20:55 | -21.60899 | -46.36122 | 34095 ft | 462 kts | 205° |
| 2026-05-03 20:55 | -21.67021 | -46.38223 | 34113 ft | 461 kts | 205° |
| 2026-05-03 20:56 | -21.73073 | -46.40460 | 34118 ft | 460 kts | 206° |
| 2026-05-03 20:56 | -21.79118 | -46.42701 | 34120 ft | 459 kts | 206° |
| 2026-05-03 20:57 | -21.85164 | -46.44927 | 34125 ft | 460 kts | 206° |
| 2026-05-03 20:57 | -21.91225 | -46.47161 | 34129 ft | 460 kts | 206° |
| 2026-05-03 20:58 | -21.97283 | -46.49397 | 34126 ft | 459 kts | 206° |
| 2026-05-03 20:58 | -22.03329 | -46.51631 | 34093 ft | 461 kts | 206° |
| 2026-05-03 20:59 | -22.06375 | -46.52759 | 33682 ft | 462 kts | 206° |
| 2026-05-03 20:59 | -22.09409 | -46.53877 | 33252 ft | 461 kts | 206° |
| 2026-05-03 20:59 | -22.12402 | -46.54980 | 32611 ft | 446 kts | 206° |
| 2026-05-03 20:59 | -22.15328 | -46.56060 | 31973 ft | 446 kts | 206° |
| 2026-05-03 21:00 | -22.18268 | -46.57153 | 31401 ft | 448 kts | 206° |
| 2026-05-03 21:00 | -22.20222 | -46.57876 | 30983 ft | 449 kts | 206° |
| 2026-05-03 21:00 | -22.24135 | -46.59324 | 30201 ft | 448 kts | 206° |
| 2026-05-03 21:00 | -22.27130 | -46.60434 | 29603 ft | 450 kts | 206° |
| 2026-05-03 21:01 | -22.30097 | -46.61538 | 28974 ft | 452 kts | 206° |
| 2026-05-03 21:01 | -22.33058 | -46.62632 | 28411 ft | 448 kts | 205° |
| 2026-05-03 21:01 | -22.35954 | -46.63703 | 27824 ft | 444 kts | 205° |
| 2026-05-03 21:01 | -22.38898 | -46.64797 | 27228 ft | 439 kts | 205° |
| 2026-05-03 21:02 | -22.41626 | -46.66055 | 26629 ft | 424 kts | 218° |
| 2026-05-03 21:02 | -22.43862 | -46.68031 | 26145 ft | 412 kts | 228° |
| 2026-05-03 21:02 | -22.45962 | -46.70132 | 25545 ft | 410 kts | 227° |
| 2026-05-03 21:02 | -22.48057 | -46.72198 | 25016 ft | 406 kts | 227° |
| 2026-05-03 21:03 | -22.50143 | -46.74242 | 24486 ft | 404 kts | 227° |
| 2026-05-03 21:03 | -22.52172 | -46.76284 | 23937 ft | 388 kts | 227° |
| 2026-05-03 21:03 | -22.54088 | -46.78214 | 23411 ft | 365 kts | 227° |
| 2026-05-03 21:03 | -22.55893 | -46.80038 | 23237 ft | 351 kts | 227° |
| 2026-05-03 21:04 | -22.57671 | -46.81843 | 23143 ft | 350 kts | 227° |
| 2026-05-03 21:04 | -22.59444 | -46.83645 | 23151 ft | 351 kts | 227° |
| 2026-05-03 21:04 | -22.61230 | -46.85458 | 23164 ft | 352 kts | 227° |
| 2026-05-03 21:04 | -22.63024 | -46.87275 | 23182 ft | 357 kts | 227° |
| 2026-05-03 21:05 | -22.64833 | -46.89108 | 23175 ft | 355 kts | 227° |
| 2026-05-03 21:05 | -22.66632 | -46.90928 | 23061 ft | 355 kts | 227° |
| 2026-05-03 21:05 | -22.68589 | -46.92509 | 22862 ft | 349 kts | 217° |
| 2026-05-03 21:05 | -22.70655 | -46.93932 | 22662 ft | 354 kts | 217° |
| 2026-05-03 21:06 | -22.72717 | -46.95358 | 22266 ft | 353 kts | 217° |
| 2026-05-03 21:06 | -22.74797 | -46.96788 | 21728 ft | 346 kts | 217° |
| 2026-05-03 21:06 | -22.76824 | -46.98175 | 21477 ft | 345 kts | 217° |
| 2026-05-03 21:06 | -22.78854 | -46.99564 | 21196 ft | 345 kts | 217° |
| 2026-05-03 21:07 | -22.80882 | -47.00947 | 20911 ft | 344 kts | 217° |
| 2026-05-03 21:07 | -22.82906 | -47.02331 | 20630 ft | 343 kts | 216° |
| 2026-05-03 21:07 | -22.84922 | -47.03706 | 20354 ft | 342 kts | 216° |
| 2026-05-03 21:07 | -22.86931 | -47.05080 | 20065 ft | 341 kts | 216° |
| 2026-05-03 21:08 | -22.88936 | -47.06451 | 19627 ft | 340 kts | 216° |
| 2026-05-03 21:08 | -22.90935 | -47.07806 | 19215 ft | 337 kts | 215° |
| 2026-05-03 21:08 | -22.92926 | -47.09149 | 18682 ft | 336 kts | 215° |
| 2026-05-03 21:08 | -22.94901 | -47.10485 | 18126 ft | 333 kts | 214° |
| 2026-05-03 21:09 | -22.96862 | -47.11808 | 17658 ft | 331 kts | 215° |
| 2026-05-03 21:09 | -22.98813 | -47.13133 | 17152 ft | 331 kts | 214° |
| 2026-05-03 21:09 | -23.00780 | -47.14416 | 16687 ft | 331 kts | 209° |
| 2026-05-03 21:09 | -23.03008 | -47.15102 | 16236 ft | 341 kts | 188° |
| 2026-05-03 21:10 | -23.05405 | -47.14921 | 15789 ft | 350 kts | 173° |
| 2026-05-03 21:10 | -23.07785 | -47.14377 | 15292 ft | 349 kts | 171° |
| 2026-05-03 21:10 | -23.10139 | -47.13810 | 14814 ft | 344 kts | 171° |
| 2026-05-03 21:10 | -23.12468 | -47.13312 | 14382 ft | 338 kts | 172° |
| 2026-05-03 21:11 | -23.14772 | -47.12839 | 13926 ft | 335 kts | 172° |
| 2026-05-03 21:11 | -23.17049 | -47.12353 | 13482 ft | 332 kts | 171° |
| 2026-05-03 21:11 | -23.19301 | -47.11867 | 13053 ft | 328 kts | 171° |
| 2026-05-03 21:11 | -23.21503 | -47.11374 | 12602 ft | 315 kts | 172° |
| 2026-05-03 21:12 | -23.23591 | -47.10916 | 12200 ft | 298 kts | 172° |
| 2026-05-03 21:12 | -23.25609 | -47.10475 | 11827 ft | 295 kts | 172° |
| 2026-05-03 21:12 | -23.27638 | -47.10045 | 11418 ft | 299 kts | 171° |
| 2026-05-03 21:12 | -23.29682 | -47.09593 | 11016 ft | 300 kts | 171° |
| 2026-05-03 21:13 | -23.31730 | -47.09134 | 10582 ft | 300 kts | 171° |
| 2026-05-03 21:13 | -23.33772 | -47.08690 | 10178 ft | 299 kts | 171° |
| 2026-05-03 21:13 | -23.35807 | -47.08248 | 9753 ft | 297 kts | 171° |
| 2026-05-03 21:13 | -23.37808 | -47.07811 | 9367 ft | 287 kts | 170° |
| 2026-05-03 21:14 | -23.39709 | -47.07390 | 9022 ft | 270 kts | 170° |
| 2026-05-03 21:14 | -23.41439 | -47.06802 | 8721 ft | 256 kts | 150° |
| 2026-05-03 21:14 | -23.42699 | -47.05495 | 8513 ft | 247 kts | 123° |
| 2026-05-03 21:14 | -23.43333 | -47.03831 | 8358 ft | 228 kts | 106° |
| 2026-05-03 21:15 | -23.43713 | -47.02241 | 8184 ft | 208 kts | 104° |
| 2026-05-03 21:15 | -23.44059 | -47.00762 | 7975 ft | 195 kts | 104° |
| 2026-05-03 21:15 | -23.44394 | -46.99384 | 7807 ft | 181 kts | 104° |
| 2026-05-03 21:15 | -23.44717 | -46.98105 | 7652 ft | 170 kts | 105° |
| 2026-05-03 21:16 | -23.45022 | -46.96891 | 7515 ft | 162 kts | 105° |
| 2026-05-03 21:16 | -23.45322 | -46.95733 | 7411 ft | 157 kts | 105° |
| 2026-05-03 21:16 | -23.45624 | -46.94586 | 7326 ft | 158 kts | 105° |
| 2026-05-03 21:16 | -23.45928 | -46.93426 | 7199 ft | 160 kts | 105° |
| 2026-05-03 21:17 | -23.46231 | -46.92261 | 7045 ft | 159 kts | 105° |
| 2026-05-03 21:17 | -23.46434 | -46.91497 | 6938 ft | 158 kts | 106° |
| 2026-05-03 21:17 | -23.46864 | -46.89992 | 6747 ft | 154 kts | 106° |
| 2026-05-03 21:17 | -23.47164 | -46.88885 | 6648 ft | 153 kts | 105° |
| 2026-05-03 21:18 | -23.47455 | -46.87762 | 6540 ft | 155 kts | 105° |
| 2026-05-03 21:18 | -23.47754 | -46.86643 | 6425 ft | 153 kts | 106° |
| 2026-05-03 21:18 | -23.48046 | -46.85529 | 6279 ft | 151 kts | 106° |
| 2026-05-03 21:18 | -23.48327 | -46.84439 | 6126 ft | 148 kts | 106° |
| 2026-05-03 21:19 | -23.48610 | -46.83370 | 6028 ft | 146 kts | 107° |
| 2026-05-03 21:19 | -23.48889 | -46.82300 | 5929 ft | 150 kts | 106° |
| 2026-05-03 21:19 | -23.49164 | -46.81207 | 5766 ft | 150 kts | 107° |
| 2026-05-03 21:19 | -23.49443 | -46.80144 | 5597 ft | 147 kts | 107° |
| 2026-05-03 21:20 | -23.49720 | -46.79075 | 5399 ft | 146 kts | 107° |
| 2026-05-03 21:20 | -23.49993 | -46.78026 | 5235 ft | 142 kts | 108° |
| 2026-05-03 21:20 | -23.50265 | -46.76987 | 5094 ft | 143 kts | 108° |
| 2026-05-03 21:20 | -23.50537 | -46.75949 | 4930 ft | 143 kts | 108° |
| 2026-05-03 21:21 | -23.50804 | -46.74889 | 4790 ft | 146 kts | 108° |
| 2026-05-03 21:21 | -23.51222 | -46.73880 | 4603 ft | 147 kts | 126° |
| 2026-05-03 21:21 | -23.51924 | -46.73114 | 4451 ft | 138 kts | 145° |
| 2026-05-03 21:21 | -23.52681 | -46.72597 | 4816 ft | 124 kts | 147° |
| 2026-05-03 21:22 | -23.53444 | -46.72069 | 5301 ft | 138 kts | 145° |
| 2026-05-03 21:22 | -23.54295 | -46.71469 | 5243 ft | 153 kts | 146° |
| 2026-05-03 21:22 | -23.55230 | -46.70822 | 4612 ft | 164 kts | 146° |
| 2026-05-03 21:22 | -23.56204 | -46.70146 | 4045 ft | 166 kts | 147° |
| 2026-05-03 21:23 | -23.57125 | -46.69512 | 3819 ft | 151 kts | 147° |
| 2026-05-03 21:23 | -23.57961 | -46.68920 | 3618 ft | 138 kts | 146° |
| 2026-05-03 21:23 | -23.58747 | -46.68353 | 3443 ft | 136 kts | 146° |
| 2026-05-03 21:23 | -23.59553 | -46.67787 | 3331 ft | 141 kts | 146° |
| 2026-05-03 21:24 | -23.60392 | -46.67199 | 3080 ft | 146 kts | 149° |
| 2026-05-03 21:24 | -23.61251 | -46.66627 | 2800 ft | 143 kts | 148° |
| 2026-05-03 21:24 | -23.62073 | -46.66054 | 2614 ft | 137 kts | 148° |
| 2026-05-03 21:24 | -23.62788 | -46.65563 | 2606 ft | 111 kts | 148° |
| 2026-05-03 21:25 | -23.63595 | -46.65026 | 2866 ft | 152 kts | 150° |
| 2026-05-03 21:25 | -23.64568 | -46.64465 | 3543 ft | 165 kts | 160° |
| 2026-05-03 21:25 | -23.65621 | -46.64529 | 3941 ft | 154 kts | 202° |
| 2026-05-03 21:25 | -23.66565 | -46.65161 | 3880 ft | 161 kts | 211° |
| 2026-05-03 21:26 | -23.67358 | -46.66004 | 3855 ft | 163 kts | 235° |
| 2026-05-03 21:26 | -23.67800 | -46.67191 | 3621 ft | 173 kts | 252° |
| 2026-05-03 21:26 | -23.67936 | -46.68468 | 3507 ft | 165 kts | 272° |
| 2026-05-03 21:26 | -23.67693 | -46.69663 | 3595 ft | 165 kts | 291° |
| 2026-05-03 21:27 | -23.67047 | -46.70700 | 3698 ft | 168 kts | 316° |
| 2026-05-03 21:27 | -23.66150 | -46.71527 | 3850 ft | 170 kts | 321° |
| 2026-05-03 21:27 | -23.65224 | -46.72319 | 3988 ft | 169 kts | 323° |
| 2026-05-03 21:27 | -23.64252 | -46.73062 | 4132 ft | 171 kts | 327° |
| 2026-05-03 21:28 | -23.63247 | -46.73764 | 4248 ft | 174 kts | 329° |
| 2026-05-03 21:28 | -23.62211 | -46.74447 | 4306 ft | 173 kts | 330° |
| 2026-05-03 21:28 | -23.61182 | -46.75128 | 4309 ft | 175 kts | 329° |
| 2026-05-03 21:28 | -23.60120 | -46.75859 | 4099 ft | 182 kts | 327° |
| 2026-05-03 21:29 | -23.59086 | -46.76609 | 3989 ft | 176 kts | 324° |
| 2026-05-03 21:29 | -23.58113 | -46.77377 | 3956 ft | 171 kts | 323° |
| 2026-05-03 21:29 | -23.57163 | -46.78150 | 4062 ft | 170 kts | 322° |
| 2026-05-03 21:29 | -23.56206 | -46.78942 | 4209 ft | 177 kts | 329° |
| 2026-05-03 21:30 | -23.55081 | -46.79359 | 4367 ft | 169 kts | 0° |
| 2026-05-03 21:30 | -23.53916 | -46.79205 | 4505 ft | 169 kts | 20° |
| 2026-05-03 21:30 | -23.52827 | -46.78709 | 4299 ft | 168 kts | 38° |
| 2026-05-03 21:30 | -23.51980 | -46.77894 | 4064 ft | 159 kts | 53° |
| 2026-05-03 21:31 | -23.51433 | -46.76903 | 3817 ft | 148 kts | 74° |
| 2026-05-03 21:31 | -23.51188 | -46.75864 | 3596 ft | 140 kts | 85° |
| 2026-05-03 21:31 | -23.51136 | -46.74816 | 3570 ft | 138 kts | 98° |
| 2026-05-03 21:31 | -23.51366 | -46.73803 | 3597 ft | 141 kts | 116° |
| 2026-05-03 21:32 | -23.51922 | -46.72932 | 3583 ft | 141 kts | 134° |
| 2026-05-03 21:32 | -23.52687 | -46.72245 | 3453 ft | 144 kts | 142° |
| 2026-05-03 21:32 | -23.53488 | -46.71640 | 3334 ft | 137 kts | 145° |
| 2026-05-03 21:32 | -23.54278 | -46.71079 | 3378 ft | 136 kts | 147° |
| 2026-05-03 21:33 | -23.55094 | -46.70521 | 3399 ft | 140 kts | 147° |
| 2026-05-03 21:33 | -23.55942 | -46.69984 | 3344 ft | 142 kts | 151° |
| 2026-05-03 21:33 | -23.56816 | -46.69488 | 3314 ft | 140 kts | 152° |
| 2026-05-03 21:33 | -23.57669 | -46.68983 | 3284 ft | 138 kts | 151° |
| 2026-05-03 21:34 | -23.58513 | -46.68482 | 3258 ft | 140 kts | 149° |
| 2026-05-03 21:34 | -23.59352 | -46.67931 | 3140 ft | 142 kts | 148° |
| 2026-05-03 21:34 | -23.60181 | -46.67359 | 3051 ft | 140 kts | 148° |
| 2026-05-03 21:34 | -23.61015 | -46.66781 | 2879 ft | 143 kts | 148° |
| 2026-05-03 21:35 | -23.61853 | -46.66207 | 2679 ft | 139 kts | 148° |
| 2026-05-03 21:35 | -23.62615 | -46.65685 | 2603 ft | 97 kts | 148° |
| 2026-05-03 21:35 | -23.62882 | -46.65523 | 2606 ft | 21 kts | 169° |
| 2026-05-03 21:35 | -23.62907 | -46.65600 | 2601 ft | 9 kts | 334° |
| 2026-05-03 21:36 | -23.62896 | -46.65605 | 2601 ft | 0 kts | 335° |
| 2026-05-03 21:36 | -23.62865 | -46.65622 | 2601 ft | 8 kts | 333° |
| 2026-05-03 21:36 | -23.62817 | -46.65653 | 2601 ft | 10 kts | 329° |
| 2026-05-03 21:36 | -23.62747 | -46.65702 | 2601 ft | 12 kts | 327° |
| 2026-05-03 21:37 | -23.62691 | -46.65740 | 2601 ft | 7 kts | 324° |
| 2026-05-03 21:37 | -23.62686 | -46.65748 | 2600 ft | 1 kts | 304° |
| 2026-05-03 21:37 | -23.62704 | -46.65798 | 2599 ft | 6 kts | 238° |
| 2026-05-03 21:37 | -23.62707 | -46.65803 | 2599 ft | 3 kts | 238° |
| 2026-05-03 21:38 | -23.62719 | -46.65823 | 2599 ft | 0 kts | 238° |